createdAt,value
2018-04-07T00:00:40.225Z,78.90
2018-04-07T00:03:11.694Z,79.20
2018-04-07T00:05:40.821Z,80.00
2018-04-07T00:08:09.075Z,80.60
2018-04-07T00:10:37.272Z,81.00
2018-04-07T00:13:05.424Z,80.80
2018-04-07T00:15:33.678Z,80.60
2018-04-07T00:18:03.554Z,81.50
2018-04-07T00:20:31.804Z,82.70
2018-04-07T00:23:02.061Z,82.30
2018-04-07T00:25:31.166Z,82.00
2018-04-07T00:27:59.565Z,83.00
2018-04-07T00:30:27.746Z,82.70
2018-04-07T00:32:55.977Z,84.70
2018-04-07T00:35:25.278Z,86.40
2018-04-07T00:37:53.458Z,87.30
2018-04-07T00:40:21.711Z,86.60
2018-04-07T00:42:50.286Z,85.60
2018-04-07T00:45:18.755Z,83.90
2018-04-07T00:47:46.927Z,83.70
2018-04-07T00:50:15.076Z,82.60
2018-04-07T00:52:55.317Z,82.40
2018-04-07T00:55:24.844Z,84.20
2018-04-07T00:57:54.169Z,84.20
2018-04-07T01:00:22.345Z,83.80
2018-04-07T01:02:50.621Z,85.50
2018-04-07T01:05:18.781Z,87.20
2018-04-07T01:07:46.967Z,88.80
2018-04-07T01:10:15.142Z,87.90
2018-04-07T01:12:44.049Z,86.30
2018-04-07T01:15:12.207Z,86.10
2018-04-07T01:17:40.596Z,84.00
2018-04-07T01:20:09.007Z,82.30
2018-04-07T01:22:38.972Z,85.30
2018-04-07T01:25:07.740Z,85.20
2018-04-07T01:27:36.137Z,88.00
2018-04-07T01:30:04.331Z,88.60
2018-04-07T01:32:32.639Z,87.20
2018-04-07T01:35:00.810Z,87.10
2018-04-07T01:37:29.014Z,87.70
2018-04-07T01:39:57.540Z,88.60
2018-04-07T01:42:27.819Z,87.00
2018-04-07T01:44:56.045Z,86.20
2018-04-07T01:47:24.240Z,83.60
2018-04-07T01:49:52.692Z,81.30
2018-04-07T01:52:23.227Z,82.50
2018-04-07T01:54:51.570Z,87.10
2018-04-07T01:57:20.198Z,88.40
2018-04-07T01:59:48.345Z,89.40
2018-04-07T02:02:16.618Z,90.10
2018-04-07T02:04:44.829Z,90.40
2018-04-07T02:07:13.218Z,89.90
2018-04-07T02:09:41.379Z,90.50
2018-04-07T02:12:13.050Z,91.00
2018-04-07T02:14:45.841Z,91.60
2018-04-07T02:17:16.029Z,90.40
2018-04-07T02:19:44.198Z,90.80
2018-04-07T02:22:14.532Z,90.40
2018-04-07T02:24:42.692Z,89.90
2018-04-07T02:27:10.854Z,88.90
2018-04-07T02:29:39.028Z,89.00
2018-04-07T02:32:08.474Z,90.70
2018-04-07T02:34:36.686Z,91.30
2018-04-07T02:37:04.863Z,92.20
2018-04-07T02:39:33.035Z,92.40
2018-04-07T02:42:02.245Z,91.60
2018-04-07T02:44:30.413Z,90.70
2018-04-07T02:46:58.569Z,90.30
2018-04-07T02:49:27.501Z,90.60
2018-04-07T02:51:56.683Z,90.60
2018-04-07T02:54:25.612Z,91.30
2018-04-07T02:56:53.770Z,91.50
2018-04-07T02:59:22.168Z,91.10
2018-04-07T03:01:51.399Z,90.70
2018-04-07T03:04:19.567Z,90.90
2018-04-07T03:06:49.435Z,92.30
2018-04-07T03:09:17.598Z,92.30
2018-04-07T03:11:46.425Z,91.60
2018-04-07T03:14:14.585Z,90.40
2018-04-07T03:16:42.772Z,89.90
2018-04-07T03:19:11.110Z,90.20
2018-04-07T03:21:40.539Z,87.00
2018-04-07T03:24:12.118Z,89.40
2018-04-07T03:26:40.308Z,89.20
2018-04-07T03:29:08.482Z,90.50
2018-04-07T03:31:38.846Z,92.10
2018-04-07T03:34:07.628Z,91.80
2018-04-07T03:36:36.467Z,91.60
2018-04-07T03:39:05.067Z,91.30
2018-04-07T03:41:34.314Z,91.00
2018-04-07T03:44:02.679Z,90.40
2018-04-07T03:46:30.820Z,86.80
2018-04-07T03:48:59.020Z,84.10
2018-04-07T03:51:29.277Z,87.40
2018-04-07T03:53:57.509Z,89.80
2018-04-07T03:56:25.668Z,90.80
2018-04-07T03:58:54.599Z,92.90
2018-04-07T04:01:23.797Z,92.90
2018-04-07T04:03:51.994Z,93.30
2018-04-07T04:06:21.038Z,92.90
2018-04-07T04:08:49.976Z,91.80
2018-04-07T04:11:20.649Z,91.80
2018-04-07T04:13:50.321Z,90.90
2018-04-07T04:16:18.522Z,90.50
2018-04-07T04:18:46.681Z,90.80
2018-04-07T04:21:14.872Z,90.80
2018-04-07T04:23:43.404Z,91.20
2018-04-07T04:26:11.579Z,91.40
2018-04-07T04:28:42.108Z,91.30
2018-04-07T04:31:10.279Z,90.90
2018-04-07T04:33:38.455Z,90.90
2018-04-07T04:36:06.718Z,90.60
2018-04-07T04:38:35.373Z,89.70
2018-04-07T04:41:04.350Z,90.10
2018-04-07T04:43:33.490Z,90.10
2018-04-07T04:46:01.658Z,90.30
2018-04-07T04:48:29.833Z,90.70
2018-04-07T04:50:58.012Z,91.60
2018-04-07T04:53:27.492Z,92.00
2018-04-07T04:55:55.709Z,92.40
2018-04-07T04:58:23.877Z,92.20
2018-04-07T05:00:52.890Z,92.10
2018-04-07T05:03:21.143Z,91.60
2018-04-07T05:05:50.025Z,91.00
2018-04-07T05:08:18.198Z,91.40
2018-04-07T05:10:47.177Z,91.00
2018-04-07T05:13:16.535Z,91.30
2018-04-07T05:15:45.486Z,91.50
2018-04-07T05:18:13.782Z,91.50
2018-04-07T05:20:42.232Z,90.80
2018-04-07T05:23:10.573Z,89.20
2018-04-07T05:25:38.765Z,89.50
2018-04-07T05:28:07.337Z,89.10
2018-04-07T05:30:35.521Z,89.50
2018-04-07T05:33:03.798Z,90.30
2018-04-07T05:35:32.001Z,90.40
2018-04-07T05:38:01.027Z,91.30
2018-04-07T05:40:32.383Z,90.70
2018-04-07T05:43:00.912Z,90.00
2018-04-07T05:45:29.446Z,88.60
2018-04-07T05:47:57.788Z,88.30
2018-04-07T05:50:25.958Z,87.70
2018-04-07T05:52:54.270Z,86.80
2018-04-07T05:55:22.560Z,87.60
2018-04-07T05:57:50.733Z,86.50
2018-04-07T06:00:19.410Z,85.70
2018-04-07T06:02:47.579Z,85.80
2018-04-07T06:05:16.449Z,84.20
2018-04-07T06:07:44.609Z,84.20
2018-04-07T06:10:12.789Z,83.60
2018-04-07T06:12:41.425Z,83.50
2018-04-07T06:15:09.998Z,81.10
2018-04-07T06:17:38.171Z,81.20
2018-04-07T06:20:06.367Z,83.10
2018-04-07T06:22:34.997Z,83.70
2018-04-07T06:25:03.883Z,83.70
2018-04-07T06:27:32.963Z,82.80
2018-04-07T06:30:05.197Z,82.40
2018-04-07T06:32:33.483Z,82.80
2018-04-07T06:35:01.661Z,82.50
2018-04-07T06:37:29.835Z,82.10
2018-04-07T06:39:58.028Z,82.10
2018-04-07T06:42:27.035Z,79.40
2018-04-07T06:44:55.225Z,79.40
2018-04-07T06:47:23.662Z,78.50
2018-04-07T06:49:53.546Z,79.00
2018-04-07T06:52:22.148Z,77.60
2018-04-07T06:54:50.540Z,76.50
2018-04-07T06:57:18.707Z,76.70
2018-04-07T06:59:46.869Z,74.80
2018-04-07T07:02:17.565Z,73.40
2018-04-07T07:04:45.747Z,73.10
2018-04-07T07:07:13.914Z,72.30
2018-04-07T07:09:42.077Z,73.70
2018-04-07T07:12:11.663Z,73.20
2018-04-07T07:14:41.520Z,72.30
2018-04-07T07:17:09.737Z,71.50
2018-04-07T07:19:38.825Z,72.10
2018-04-07T07:22:07.121Z,71.90
2018-04-07T07:24:35.284Z,72.10
2018-04-07T07:27:03.446Z,71.60
2018-04-07T07:29:31.663Z,69.80
2018-04-07T07:31:59.863Z,65.70
2018-04-07T07:34:28.260Z,62.00
2018-04-07T07:36:57.313Z,59.60
2018-04-07T07:39:25.506Z,58.60
2018-04-07T07:41:53.820Z,57.30
2018-04-07T07:44:21.966Z,54.30
2018-04-07T07:46:51.935Z,51.00
2018-04-07T07:49:20.111Z,50.70
2018-04-07T07:51:52.198Z,47.90
2018-04-07T07:54:20.477Z,47.90
2018-04-07T07:56:48.673Z,47.20
2018-04-07T07:59:16.838Z,45.40
2018-04-07T08:01:45.095Z,46.40
2018-04-07T08:04:13.257Z,45.30
2018-04-07T08:06:43.914Z,44.20
2018-04-07T08:09:13.323Z,44.10
2018-04-07T08:11:47.293Z,44.60
2018-04-07T08:14:17.330Z,43.60
2018-04-07T08:16:46.598Z,43.60
2018-04-07T08:19:14.861Z,40.40
2018-04-07T08:21:43.131Z,38.20
2018-04-07T08:24:11.311Z,39.30
2018-04-07T08:26:39.493Z,39.30
2018-04-07T08:29:07.731Z,37.30
2018-04-07T08:31:55.372Z,35.90
2018-04-07T08:34:23.537Z,34.80
2018-04-07T08:36:52.169Z,34.80
2018-04-07T08:39:20.330Z,33.70
2018-04-07T08:41:52.347Z,33.60
2018-04-07T08:44:22.465Z,30.60
2018-04-07T08:46:51.493Z,30.80
2018-04-07T08:49:19.657Z,30.00
2018-04-07T08:51:47.928Z,29.70
2018-04-07T08:54:16.122Z,27.90
2018-04-07T08:56:44.281Z,25.20
2018-04-07T08:59:12.458Z,26.30
2018-04-07T09:01:40.647Z,27.20
2018-04-07T09:04:08.804Z,27.60
2018-04-07T09:06:39.513Z,27.90
2018-04-07T09:09:07.674Z,27.10
2018-04-07T09:11:35.986Z,25.60
2018-04-07T09:14:04.163Z,25.60
2018-04-07T09:16:32.841Z,26.40
2018-04-07T09:19:01.023Z,27.00
2018-04-07T09:21:29.283Z,25.70
2018-04-07T09:23:57.439Z,26.00
2018-04-07T09:26:26.429Z,25.00
2018-04-07T09:28:54.663Z,25.00
2018-04-07T09:31:25.633Z,23.20
2018-04-07T09:33:53.799Z,21.70
2018-04-07T09:36:22.777Z,21.00
2018-04-07T09:38:51.535Z,20.90
2018-04-07T09:41:22.251Z,21.80
2018-04-07T09:43:50.468Z,22.30
2018-04-07T09:46:19.558Z,21.90
2018-04-07T09:48:48.222Z,22.10
2018-04-07T09:54:12.545Z,21.20
2018-04-07T09:56:40.709Z,21.50
2018-04-07T09:59:10.442Z,19.60
2018-04-07T10:01:38.861Z,19.60
2018-04-07T10:04:07.872Z,19.70
2018-04-07T10:06:36.757Z,19.70
2018-04-07T10:09:08.937Z,19.40
2018-04-07T10:11:41.754Z,18.30
2018-04-07T10:14:09.937Z,18.50
2018-04-07T10:16:38.120Z,18.50
2018-04-07T10:19:07.388Z,16.90
2018-04-07T10:21:40.466Z,17.00
2018-04-07T10:24:14.062Z,16.00
2018-04-07T10:26:42.237Z,16.40
2018-04-07T10:29:12.258Z,16.00
2018-04-07T10:31:42.013Z,16.10
2018-04-07T10:34:15.757Z,16.20
2018-04-07T10:39:28.068Z,15.60
2018-04-07T10:42:01.523Z,16.60
2018-04-07T10:44:32.349Z,15.30
2018-04-07T10:47:08.193Z,14.90
2018-04-07T10:49:45.266Z,14.50
2018-04-07T10:52:20.534Z,14.70
2018-04-07T10:54:52.574Z,13.30
2018-04-07T10:57:26.564Z,13.20
2018-04-07T10:59:58.595Z,13.30
2018-04-07T11:02:34.493Z,13.50
2018-04-07T11:05:12.510Z,14.50
2018-04-07T11:07:46.292Z,15.70
2018-04-07T11:10:21.646Z,15.70
2018-04-07T11:13:03.946Z,16.00
2018-04-07T11:15:42.245Z,15.90
2018-04-07T11:20:59.647Z,16.30
2018-04-07T11:26:25.101Z,17.30
2018-04-07T11:31:43.426Z,17.40
2018-04-07T11:34:20.945Z,17.40
2018-04-07T11:36:55.097Z,17.20
2018-04-07T11:39:27.830Z,17.10
2018-04-07T11:42:02.360Z,15.90
2018-04-07T11:47:06.787Z,16.80
2018-04-07T11:52:32.317Z,16.20
2018-04-07T11:55:03.897Z,16.40
2018-04-07T11:57:33.684Z,16.00
2018-04-07T12:00:04.332Z,15.60
2018-04-07T12:02:35.395Z,15.50
2018-04-07T12:05:07.553Z,16.40
2018-04-07T12:07:38.570Z,16.10
2018-04-07T12:10:08.119Z,16.30
2018-04-07T12:12:38.012Z,16.00
2018-04-07T12:15:06.946Z,15.00
2018-04-07T12:17:35.942Z,15.00
2018-04-07T12:20:05.963Z,14.90
2018-04-07T12:22:42.969Z,15.40
2018-04-07T12:30:51.135Z,15.40
2018-04-07T12:39:11.867Z,14.70
2018-04-07T12:44:20.314Z,14.10
2018-04-07T12:46:54.345Z,14.40
2018-04-07T12:49:25.551Z,13.30
2018-04-07T12:52:02.705Z,12.20
2018-04-07T12:54:34.359Z,12.20
2018-04-07T12:57:07.834Z,13.60
2018-04-07T12:59:40.284Z,12.20
2018-04-07T13:02:15.986Z,11.70
2018-04-07T13:37:58.487Z,9.10
2018-04-07T13:40:27.832Z,9.20
2018-04-07T13:42:56.793Z,8.40
2018-04-07T13:45:25.752Z,8.80
2018-04-07T13:47:55.236Z,7.70
2018-04-07T13:50:25.934Z,5.70
2018-04-07T13:52:57.160Z,5.00
2018-04-07T13:55:26.369Z,3.80
2018-04-07T13:57:55.219Z,1.70
2018-04-07T14:00:24.894Z,1.00
2018-04-07T14:02:54.189Z,1.00
2018-04-07T14:05:22.523Z,1.00
2018-04-07T14:07:50.907Z,1.00
2018-04-07T14:10:19.954Z,1.00
2018-04-07T14:12:54.677Z,1.00
2018-04-07T14:15:23.474Z,1.00
2018-04-07T14:17:56.518Z,1.00
2018-04-07T14:20:26.496Z,1.00
2018-04-07T14:22:56.859Z,1.00
2018-04-07T14:25:26.099Z,1.00
2018-04-07T14:27:54.338Z,1.00
2018-04-07T14:30:22.976Z,1.00
2018-04-07T14:32:53.566Z,1.00
2018-04-07T14:35:22.090Z,1.00
2018-04-07T14:37:53.581Z,1.00
2018-04-07T14:40:21.773Z,1.00
2018-04-07T14:42:50.760Z,1.00
2018-04-07T14:45:20.743Z,1.00
2018-04-07T14:47:49.683Z,1.00
2018-04-07T14:50:19.550Z,1.00
2018-04-07T14:52:51.245Z,1.00
2018-04-07T14:55:19.931Z,1.00
2018-04-07T14:57:48.176Z,1.00
2018-04-07T15:00:18.169Z,1.00
2018-04-07T15:02:47.193Z,1.00
2018-04-07T15:05:15.344Z,1.00
2018-04-07T15:07:44.262Z,1.00
2018-04-07T15:10:12.842Z,1.00
2018-04-07T15:12:41.958Z,1.00
2018-04-07T15:15:11.336Z,1.00
2018-04-07T15:17:41.875Z,1.00
2018-04-07T15:20:10.070Z,1.00
2018-04-07T15:22:39.830Z,1.00
2018-04-07T15:25:09.179Z,1.00
2018-04-07T15:27:38.878Z,1.00
2018-04-07T15:30:07.048Z,1.00
2018-04-07T15:32:35.333Z,1.00
2018-04-07T15:35:04.438Z,1.00
2018-04-07T15:37:32.685Z,1.00
2018-04-07T15:40:01.756Z,1.00
2018-04-07T15:42:35.451Z,1.00
2018-04-07T15:45:04.489Z,1.00
2018-04-07T15:47:32.809Z,1.00
2018-04-07T15:50:01.887Z,1.00
2018-04-07T15:52:30.544Z,1.00
2018-04-07T15:55:00.949Z,1.00
2018-04-07T15:57:30.920Z,1.00
2018-04-07T15:59:59.701Z,1.00
2018-04-07T16:02:29.800Z,1.00
2018-04-07T16:04:59.214Z,1.00
2018-04-07T16:07:27.397Z,1.00
2018-04-07T16:09:56.266Z,1.00
2018-04-07T16:12:29.249Z,1.00
2018-04-07T16:14:58.468Z,1.00
2018-04-07T16:17:30.029Z,1.00
2018-04-07T16:20:00.859Z,1.00
2018-04-07T16:22:33.343Z,1.00
2018-04-07T16:25:01.552Z,1.00
2018-04-07T16:27:34.695Z,1.20
2018-04-07T16:30:09.590Z,1.00
2018-04-07T16:32:43.374Z,1.00
2018-04-07T16:35:19.546Z,1.00
2018-04-07T16:37:50.472Z,1.00
2018-04-07T16:40:23.175Z,1.00
2018-04-07T16:43:03.773Z,1.00
2018-04-07T16:48:12.794Z,1.00
2018-04-07T16:50:45.881Z,1.00
2018-04-07T16:53:20.455Z,1.00
2018-04-07T16:55:50.185Z,1.00
2018-04-07T16:58:24.863Z,1.00
2018-04-07T17:01:05.752Z,1.00
2018-04-07T17:06:11.977Z,1.30
2018-04-07T17:08:41.800Z,1.30
2018-04-07T17:11:19.335Z,1.10
2018-04-07T17:13:47.564Z,1.10
2018-04-07T17:16:23.520Z,1.60
2018-04-07T17:18:55.913Z,1.00
2018-04-07T17:21:31.187Z,2.00
2018-04-07T17:24:13.050Z,1.00
2018-04-07T17:52:30.028Z,5.60
2018-04-07T17:54:59.610Z,5.50
2018-04-07T17:57:32.152Z,5.60
2018-04-07T18:10:43.181Z,7.40
2018-04-07T18:16:02.223Z,8.20
2018-04-07T18:18:31.816Z,9.50
2018-04-07T18:21:01.259Z,9.50
2018-04-07T18:23:37.457Z,9.80
2018-04-07T18:28:49.961Z,10.00
2018-04-07T18:31:24.130Z,10.50
2018-04-07T18:33:57.948Z,11.00
2018-04-07T18:44:44.644Z,16.20
2018-04-07T18:52:40.038Z,18.50
2018-04-07T19:00:35.770Z,19.80
2018-04-07T19:05:57.291Z,21.10
2018-04-07T19:08:35.072Z,22.00
2018-04-07T19:11:08.541Z,22.10
2018-04-07T19:13:46.545Z,22.80
2018-04-07T19:19:05.942Z,25.20
2018-04-07T19:21:41.481Z,25.80
2018-04-07T19:24:11.359Z,26.40
2018-04-07T19:26:40.538Z,28.20
2018-04-07T19:29:15.110Z,26.50
2018-04-07T19:31:50.863Z,26.40
2018-04-07T19:34:22.003Z,27.30
2018-04-07T19:36:50.230Z,27.30
2018-04-07T19:39:19.641Z,28.20
2018-04-07T19:41:52.246Z,28.40
2018-04-07T19:44:29.093Z,28.40
2018-04-07T19:47:05.147Z,29.10
2018-04-07T19:52:34.073Z,30.30
2018-04-07T19:55:03.950Z,30.30
2018-04-07T19:57:35.044Z,30.30
2018-04-07T20:00:05.198Z,31.70
2018-04-07T20:02:44.429Z,30.20
2018-04-07T20:05:15.197Z,32.00
2018-04-07T20:07:47.140Z,30.90
2018-04-07T20:10:19.800Z,31.90
2018-04-07T20:12:55.330Z,32.00
2018-04-07T20:15:34.400Z,32.80
2018-04-07T20:18:08.373Z,30.90
2018-04-07T20:20:37.899Z,31.10
2018-04-07T20:23:11.070Z,33.10
2018-04-07T20:25:40.573Z,33.10
2018-04-07T20:28:10.641Z,33.40
2018-04-07T20:30:39.515Z,35.30
2018-04-07T20:33:12.998Z,36.10
2018-04-07T20:35:42.072Z,36.00
2018-04-07T20:41:00.291Z,37.60
2018-04-07T20:43:29.829Z,41.10
2018-04-07T20:45:58.897Z,37.40
2018-04-07T20:48:27.641Z,36.70
2018-04-07T20:50:57.670Z,38.30
2018-04-07T20:53:26.758Z,39.30
2018-04-07T20:55:55.849Z,38.40
2018-04-07T20:58:24.734Z,37.50
2018-04-07T21:03:56.604Z,41.30
2018-04-07T21:06:33.203Z,44.00
2018-04-07T21:09:04.375Z,44.90
2018-04-07T21:11:37.467Z,45.50
2018-04-07T21:14:15.378Z,47.40
2018-04-07T21:16:45.195Z,44.60
2018-04-07T21:19:19.517Z,43.30
2018-04-07T21:21:48.982Z,44.70
2018-04-07T21:24:19.001Z,44.90
2018-04-07T21:26:48.105Z,47.80
2018-04-07T21:29:18.707Z,47.30
2018-04-07T21:31:50.199Z,47.00
2018-04-07T21:34:19.813Z,47.80
2018-04-07T21:36:56.478Z,48.10
2018-04-07T21:39:26.251Z,47.20
2018-04-07T21:41:54.778Z,46.60
2018-04-07T21:44:29.670Z,47.20
2018-04-07T21:46:59.063Z,48.90
2018-04-07T21:49:28.061Z,49.50
2018-04-07T21:51:57.419Z,49.70
2018-04-07T21:54:50.968Z,52.00
2018-04-07T21:57:22.364Z,50.90
2018-04-07T21:59:51.898Z,50.00
2018-04-07T22:02:23.883Z,50.70
2018-04-07T22:04:54.650Z,50.50
2018-04-07T22:07:25.557Z,51.40
2018-04-07T22:09:54.666Z,51.30
2018-04-07T22:12:24.198Z,51.80
2018-04-07T22:14:54.149Z,53.20
2018-04-07T22:17:24.021Z,53.10
2018-04-07T22:19:54.328Z,51.30
2018-04-07T22:22:26.156Z,52.10
2018-04-07T22:24:55.153Z,52.10
2018-04-07T22:27:24.343Z,55.20
2018-04-07T22:29:54.024Z,57.80
2018-04-07T22:34:57.554Z,54.20
2018-04-07T22:37:31.222Z,55.30
2018-04-07T22:40:00.349Z,57.00
2018-04-07T22:42:30.219Z,59.80
2018-04-07T22:45:01.125Z,58.10
2018-04-07T22:47:30.827Z,59.70
2018-04-07T22:50:00.054Z,59.20
2018-04-07T22:52:28.359Z,61.10
2018-04-07T22:54:58.033Z,61.10
2018-04-07T22:57:29.830Z,58.30
2018-04-07T22:59:59.224Z,59.20
2018-04-07T23:02:29.352Z,56.90
2018-04-07T23:04:59.271Z,57.80
2018-04-07T23:07:27.490Z,59.60
2018-04-07T23:09:56.880Z,57.80
2018-04-07T23:12:29.776Z,58.60
2018-04-07T23:15:02.479Z,59.10
2018-04-07T23:17:31.727Z,61.00
2018-04-07T23:20:02.530Z,61.20
2018-04-07T23:22:33.768Z,62.50
2018-04-07T23:25:01.979Z,62.30
2018-04-07T23:27:30.150Z,61.00
2018-04-07T23:29:59.172Z,61.60
2018-04-07T23:32:34.886Z,61.30
2018-04-07T23:35:05.820Z,62.10
2018-04-07T23:37:34.556Z,63.10
2018-04-07T23:40:02.766Z,64.80
2018-04-07T23:42:33.503Z,62.10
2018-04-07T23:45:05.625Z,61.10
2018-04-07T23:47:34.140Z,60.90
2018-04-07T23:50:04.257Z,62.10
2018-04-07T23:52:36.311Z,60.80
2018-04-07T23:55:05.575Z,63.40
2018-04-07T23:57:34.818Z,65.10
